createdAt,value
2019-05-25T00:00:33.402Z,16.07
2019-05-25T00:05:34.920Z,15.17
2019-05-25T00:10:36.713Z,18.47
2019-05-25T00:15:38.344Z,16.83
2019-05-25T00:20:39.847Z,19.93
2019-05-25T00:25:41.716Z,21.77
2019-05-25T00:30:43.211Z,14.70
2019-05-25T00:35:44.708Z,15.90
2019-05-25T00:40:46.454Z,17.20
2019-05-25T00:45:48.033Z,16.53
2019-05-25T00:50:49.461Z,15.77
2019-05-25T00:55:51.244Z,16.07
2019-05-25T01:00:53.137Z,18.10
2019-05-25T01:05:54.640Z,15.67
2019-05-25T01:10:57.629Z,22.33
2019-05-25T01:15:59.495Z,20.43
2019-05-25T01:21:01.090Z,13.63
2019-05-25T01:26:02.505Z,18.20
2019-05-25T01:31:04.060Z,16.77
2019-05-25T01:36:05.901Z,14.20
2019-05-25T01:41:07.414Z,15.40
2019-05-25T01:46:09.881Z,14.10
2019-05-25T01:51:11.361Z,15.93
2019-05-25T01:56:12.870Z,16.47
2019-05-25T02:01:14.400Z,15.97
2019-05-25T02:06:16.141Z,19.37
2019-05-25T02:11:18.106Z,20.20
2019-05-25T02:16:19.653Z,17.77
2019-05-25T02:21:21.170Z,15.63
2019-05-25T02:26:22.738Z,15.93
2019-05-25T02:31:24.000Z,16.83
2019-05-25T02:36:25.504Z,14.07
2019-05-25T02:41:27.124Z,17.33
2019-05-25T02:46:28.852Z,22.30
2019-05-25T02:51:30.350Z,19.43
2019-05-25T02:56:32.162Z,15.83
2019-05-25T03:01:33.946Z,14.50
2019-05-25T03:06:35.428Z,13.13
2019-05-25T03:11:37.184Z,14.80
2019-05-25T03:16:39.146Z,15.67
2019-05-25T03:21:40.540Z,14.67
2019-05-25T03:26:42.657Z,13.77
2019-05-25T03:31:45.910Z,12.77
2019-05-25T03:36:47.405Z,12.70
2019-05-25T03:41:48.921Z,13.63
2019-05-25T03:46:50.443Z,13.00
2019-05-25T03:51:52.186Z,16.70
2019-05-25T03:56:53.706Z,15.53
2019-05-25T04:01:55.437Z,17.43
2019-05-25T04:06:56.931Z,13.73
2019-05-25T04:11:58.841Z,16.90
2019-05-25T04:17:00.376Z,15.80
2019-05-25T04:22:01.886Z,19.77
2019-05-25T04:27:03.444Z,21.63
2019-05-25T04:32:05.021Z,22.00
2019-05-25T04:37:06.487Z,22.47
2019-05-25T04:42:08.327Z,16.40
2019-05-25T04:47:24.356Z,20.53
2019-05-25T04:52:13.205Z,15.57
2019-05-25T04:57:14.771Z,18.33
2019-05-25T05:02:16.328Z,13.63
2019-05-25T05:07:19.262Z,15.67
2019-05-25T05:12:20.728Z,20.80
2019-05-25T05:17:22.262Z,18.43
2019-05-25T05:22:23.714Z,25.80
2019-05-25T05:27:25.128Z,24.50
2019-05-25T05:32:27.959Z,19.27
2019-05-25T05:37:29.717Z,24.67
2019-05-25T05:42:31.520Z,24.47
2019-05-25T05:47:34.098Z,20.43
2019-05-25T05:52:36.352Z,23.87
2019-05-25T05:57:38.283Z,25.20
2019-05-25T06:02:39.779Z,22.13
2019-05-25T06:07:41.374Z,23.20
2019-05-25T06:12:42.891Z,21.63
2019-05-25T06:17:44.898Z,23.73
2019-05-25T06:22:46.761Z,19.73
2019-05-25T06:27:48.273Z,22.13
2019-05-25T06:32:49.963Z,20.87
2019-05-25T06:37:51.499Z,17.63
2019-05-25T06:42:53.134Z,15.27
2019-05-25T06:47:54.924Z,19.50
2019-05-25T06:52:57.978Z,16.20
2019-05-25T06:58:00.123Z,19.20
2019-05-25T07:03:02.104Z,19.60
2019-05-25T07:08:04.003Z,18.10
2019-05-25T07:13:06.707Z,15.83
2019-05-25T07:18:08.498Z,14.90
2019-05-25T07:23:09.954Z,12.10
2019-05-25T07:28:11.460Z,14.50
2019-05-25T07:33:13.004Z,15.60
2019-05-25T07:38:14.933Z,14.95
2019-05-25T07:43:17.430Z,14.28
2019-05-25T07:48:18.966Z,12.43
2019-05-25T07:53:20.969Z,12.63
2019-05-25T07:58:22.515Z,11.68
2019-05-25T08:03:24.047Z,12.35
2019-05-25T08:08:25.969Z,9.70
2019-05-25T08:13:27.773Z,10.48
2019-05-25T08:18:30.011Z,11.97
2019-05-25T08:23:31.780Z,11.28
2019-05-25T08:28:33.438Z,8.93
2019-05-25T08:33:34.761Z,9.43
2019-05-25T08:38:36.302Z,8.43
2019-05-25T08:43:37.688Z,8.48
2019-05-25T08:48:39.225Z,9.60
2019-05-25T08:53:42.343Z,7.17
2019-05-25T08:58:48.526Z,9.93
2019-05-25T09:03:47.779Z,11.28
2019-05-25T09:08:49.529Z,11.45
2019-05-25T09:13:51.281Z,11.45
2019-05-25T09:18:52.843Z,10.58
2019-05-25T09:23:54.383Z,10.40
2019-05-25T09:29:04.369Z,9.80
2019-05-25T09:33:59.375Z,5.83
2019-05-25T09:39:01.494Z,10.10
2019-05-25T09:44:03.162Z,8.80
2019-05-25T09:49:06.363Z,9.15
2019-05-25T09:54:08.030Z,9.65
2019-05-25T09:59:19.782Z,9.25
2019-05-25T10:04:12.974Z,8.93
2019-05-25T10:09:14.496Z,7.50
2019-05-25T10:14:16.320Z,7.00
2019-05-25T10:19:18.402Z,8.65
2019-05-25T10:24:20.198Z,7.85
2019-05-25T10:29:36.203Z,7.60
2019-05-25T10:34:25.750Z,6.72
2019-05-25T10:39:27.515Z,7.87
2019-05-25T10:44:29.238Z,9.48
2019-05-25T10:49:30.690Z,7.03
2019-05-25T10:54:31.970Z,7.17
2019-05-25T10:59:33.459Z,8.73
2019-05-25T11:04:35.261Z,8.03
2019-05-25T11:09:36.665Z,7.95
2019-05-25T11:14:38.343Z,11.05
2019-05-25T11:19:39.902Z,7.30
2019-05-25T11:24:41.511Z,6.50
2019-05-25T11:29:43.110Z,6.30
2019-05-25T11:34:45.262Z,9.43
2019-05-25T11:39:47.445Z,6.58
2019-05-25T11:44:49.519Z,9.95
2019-05-25T11:49:51.040Z,7.85
2019-05-25T11:54:52.607Z,6.83
2019-05-25T11:59:54.332Z,6.42
2019-05-25T12:04:56.283Z,9.38
2019-05-25T12:09:57.922Z,7.03
2019-05-25T12:14:59.466Z,7.78
2019-05-25T12:20:01.026Z,10.90
2019-05-25T12:25:03.193Z,8.73
2019-05-25T12:30:04.732Z,8.50
2019-05-25T12:35:06.409Z,11.25
2019-05-25T12:40:07.960Z,9.43
2019-05-25T12:45:09.608Z,13.13
2019-05-25T12:50:11.163Z,8.58
2019-05-25T12:55:12.708Z,9.48
2019-05-25T13:00:16.363Z,8.83
2019-05-25T13:05:32.659Z,9.38
2019-05-25T13:10:21.614Z,9.28
2019-05-25T13:15:23.501Z,10.23
2019-05-25T13:20:25.211Z,13.08
2019-05-25T13:25:26.578Z,11.28
2019-05-25T13:30:28.024Z,11.63
2019-05-25T13:35:29.498Z,10.53
2019-05-25T13:40:31.843Z,13.85
2019-05-25T13:45:33.585Z,12.03
2019-05-25T13:50:35.113Z,10.85
2019-05-25T13:55:36.665Z,12.15
2019-05-25T14:00:38.127Z,11.22
2019-05-25T14:05:39.672Z,18.67
2019-05-25T14:10:41.389Z,11.12
2019-05-25T14:15:43.021Z,11.40
2019-05-25T14:20:44.538Z,11.48
2019-05-25T14:25:46.402Z,14.18
2019-05-25T14:30:48.311Z,11.30
2019-05-25T14:35:50.083Z,13.80
2019-05-25T14:40:51.592Z,11.70
2019-05-25T14:45:53.651Z,13.48
2019-05-25T14:50:55.460Z,17.10
2019-05-25T14:55:59.910Z,12.03
2019-05-25T15:01:01.545Z,15.70
2019-05-25T15:06:03.295Z,17.98
2019-05-25T15:11:04.885Z,13.65
2019-05-25T15:16:06.418Z,14.47
2019-05-25T15:21:08.145Z,16.40
2019-05-25T15:26:10.062Z,14.00
2019-05-25T15:31:11.623Z,13.88
2019-05-25T15:36:13.024Z,14.35
2019-05-25T15:41:15.225Z,15.58
2019-05-25T15:46:16.755Z,15.48
2019-05-25T15:51:18.624Z,14.80
2019-05-25T15:56:20.207Z,17.02
2019-05-25T16:01:21.782Z,21.70
2019-05-25T16:06:24.024Z,16.75
2019-05-25T16:11:26.751Z,13.45
2019-05-25T16:16:30.150Z,15.85
2019-05-25T16:21:32.275Z,13.78
2019-05-25T16:26:45.627Z,13.22
2019-05-25T16:31:37.317Z,12.90
2019-05-25T16:36:39.188Z,13.88
2019-05-25T16:41:41.379Z,13.18
2019-05-25T16:46:43.203Z,13.70
2019-05-25T16:51:44.647Z,13.45
2019-05-25T16:56:46.236Z,13.53
2019-05-25T17:01:48.942Z,11.18
2019-05-25T17:06:50.353Z,13.68
2019-05-25T17:11:51.604Z,11.30
2019-05-25T17:16:53.565Z,13.25
2019-05-25T17:21:55.227Z,12.50
2019-05-25T17:26:57.472Z,10.82
2019-05-25T17:31:59.408Z,11.85
2019-05-25T17:37:00.880Z,15.15
2019-05-25T17:42:02.651Z,14.05
2019-05-25T17:47:04.484Z,11.20
2019-05-25T17:52:05.966Z,15.70
2019-05-25T17:57:07.521Z,9.95
2019-05-25T18:02:09.081Z,10.65
2019-05-25T18:07:10.802Z,11.83
2019-05-25T18:12:12.437Z,17.55
2019-05-25T18:17:14.391Z,11.15
2019-05-25T18:22:16.030Z,12.45
2019-05-25T18:27:17.585Z,8.30
2019-05-25T18:32:19.178Z,8.45
2019-05-25T18:37:20.988Z,8.55
2019-05-25T18:42:22.640Z,8.78
2019-05-25T18:47:25.367Z,8.20
2019-05-25T18:52:27.268Z,6.40
2019-05-25T18:57:28.701Z,8.60
2019-05-25T19:02:30.719Z,6.92
2019-05-25T19:07:32.726Z,9.03
2019-05-25T19:12:34.306Z,11.10
2019-05-25T19:17:36.180Z,7.92
2019-05-25T19:22:37.824Z,6.12
2019-05-25T19:27:39.399Z,6.20
2019-05-25T19:32:41.606Z,7.28
2019-05-25T19:37:43.186Z,8.83
2019-05-25T19:42:48.907Z,9.05
2019-05-25T19:47:49.086Z,5.62
2019-05-25T19:52:50.649Z,12.00
2019-05-25T19:57:52.568Z,7.45
2019-05-25T20:02:54.044Z,7.60
2019-05-25T20:07:56.743Z,10.53
2019-05-25T20:12:58.682Z,12.25
2019-05-25T20:18:00.561Z,8.83
2019-05-25T20:23:02.150Z,9.03
2019-05-25T20:28:03.773Z,10.03
2019-05-25T20:33:05.281Z,9.25
2019-05-25T20:38:07.126Z,9.28
2019-05-25T20:43:09.003Z,8.10
2019-05-25T20:48:10.994Z,9.40
2019-05-25T20:53:12.790Z,9.03
2019-05-25T20:58:14.658Z,11.25
2019-05-25T21:03:16.258Z,11.95
2019-05-25T21:08:17.893Z,10.98
2019-05-25T21:13:19.519Z,9.88
2019-05-25T21:18:21.177Z,10.53
2019-05-25T21:23:22.826Z,7.58
2019-05-25T21:28:24.570Z,9.40
2019-05-25T21:33:26.432Z,10.35
2019-05-25T21:38:28.285Z,9.38
2019-05-25T21:43:30.176Z,9.23
2019-05-25T21:48:32.060Z,11.22
2019-05-25T21:53:33.562Z,11.28
2019-05-25T21:58:35.127Z,11.53
2019-05-25T22:03:37.111Z,9.73
2019-05-25T22:08:39.027Z,11.65
2019-05-25T22:13:40.544Z,10.98
2019-05-25T22:18:42.199Z,17.65
2019-05-25T22:23:43.744Z,11.15
2019-05-25T22:28:45.531Z,11.73
2019-05-25T22:33:47.696Z,15.05
2019-05-25T22:38:49.261Z,13.98
2019-05-25T22:43:51.100Z,13.37
2019-05-25T22:48:53.071Z,34.15
2019-05-25T22:53:54.713Z,11.40
2019-05-25T22:58:56.243Z,13.15
2019-05-25T23:03:58.097Z,14.50
2019-05-25T23:08:59.640Z,15.38
2019-05-25T23:14:01.404Z,19.97
2019-05-25T23:19:02.932Z,16.57
2019-05-25T23:24:04.238Z,16.57
2019-05-25T23:29:05.975Z,16.17
2019-05-25T23:34:08.001Z,17.17
2019-05-25T23:39:09.536Z,17.30
2019-05-25T23:44:11.090Z,22.02
2019-05-25T23:49:12.600Z,27.60
2019-05-25T23:54:14.626Z,31.87
2019-05-25T23:59:16.123Z,34.03
